createdAt,value
2022-08-12T00:03:53.422Z,711.10
2022-08-12T00:08:53.739Z,612.00
2022-08-12T00:13:51.025Z,666.00
2022-08-12T00:18:52.344Z,629.40
2022-08-12T00:23:51.638Z,654.60
2022-08-12T00:28:48.926Z,750.30
2022-08-12T00:33:52.527Z,756.80
2022-08-12T00:38:47.512Z,730.80
2022-08-12T00:43:47.647Z,693.80
2022-08-12T00:48:46.969Z,699.30
2022-08-12T00:53:46.305Z,805.40
2022-08-12T00:58:44.464Z,760.10
2022-08-12T01:03:43.634Z,733.70
2022-08-12T01:08:42.758Z,786.50
2022-08-12T01:13:42.860Z,699.30
2022-08-12T01:18:40.163Z,712.90
2022-08-12T01:23:42.500Z,712.90
2022-08-12T01:28:39.790Z,712.80
2022-08-12T01:33:40.095Z,730.00
2022-08-12T01:38:40.421Z,860.80
2022-08-12T01:43:38.741Z,658.90
2022-08-12T01:48:37.036Z,700.60
2022-08-12T01:53:50.331Z,697.80
2022-08-12T01:58:37.565Z,667.80
2022-08-12T02:03:34.860Z,625.00
2022-08-12T02:08:36.175Z,673.40
2022-08-12T02:13:48.425Z,654.60
2022-08-12T02:18:31.648Z,751.80
2022-08-12T02:23:31.808Z,607.00
2022-08-12T02:28:32.044Z,691.90
2022-08-12T02:33:31.215Z,650.90
2022-08-12T02:38:29.338Z,646.20
2022-08-12T02:43:29.495Z,674.00
2022-08-12T02:48:29.657Z,636.70
2022-08-12T02:53:28.778Z,660.10
2022-08-12T02:58:32.871Z,686.00
2022-08-12T03:03:26.083Z,670.40
2022-08-12T03:08:32.044Z,666.80
2022-08-12T03:13:24.529Z,647.10
2022-08-12T03:18:27.484Z,687.10
2022-08-12T03:23:28.967Z,667.90
2022-08-12T03:28:24.011Z,642.70
2022-08-12T03:33:22.442Z,631.40
2022-08-12T03:38:20.786Z,645.80
2022-08-12T03:43:20.919Z,674.50
2022-08-12T03:48:18.956Z,624.00
2022-08-12T03:53:17.550Z,759.40
2022-08-12T03:58:18.878Z,611.70
2022-08-12T04:03:17.200Z,634.60
2022-08-12T04:08:15.507Z,637.80
2022-08-12T04:13:14.825Z,607.80
2022-08-12T04:18:15.153Z,613.60
2022-08-12T04:23:16.811Z,596.30
2022-08-12T04:28:14.107Z,628.80
2022-08-12T04:33:11.859Z,654.60
2022-08-12T04:38:12.178Z,668.10
2022-08-12T04:43:59.989Z,587.90
2022-08-12T04:48:11.626Z,644.80
2022-08-12T04:53:08.422Z,695.30
2022-08-12T04:58:09.125Z,657.60
2022-08-12T05:03:08.414Z,647.20
2022-08-12T05:08:08.749Z,632.90
2022-08-12T05:13:07.166Z,663.50
2022-08-12T05:18:20.515Z,649.40
2022-08-12T05:23:12.590Z,679.80
2022-08-12T05:28:03.597Z,595.40
2022-08-12T05:33:02.882Z,639.00
2022-08-12T05:38:03.189Z,684.50
2022-08-12T05:43:02.482Z,761.00
2022-08-12T05:48:00.811Z,605.20
2022-08-12T05:53:01.120Z,653.50
2022-08-12T05:57:59.365Z,582.90
2022-08-12T06:02:59.768Z,636.80
2022-08-12T06:08:00.756Z,563.10
2022-08-12T06:12:57.015Z,593.70
2022-08-12T06:17:56.121Z,600.40
2022-08-12T06:22:55.424Z,614.90
2022-08-12T06:28:06.987Z,658.20
2022-08-12T06:33:04.208Z,597.20
2022-08-12T06:37:56.801Z,593.20
2022-08-12T06:42:53.321Z,663.30
2022-08-12T06:47:52.671Z,584.60
2022-08-12T06:52:51.963Z,584.20
2022-08-12T06:58:06.399Z,591.20
2022-08-12T07:02:50.485Z,572.20
2022-08-12T07:07:48.776Z,565.40
2022-08-12T07:12:49.053Z,515.80
2022-08-12T07:17:48.337Z,601.30
2022-08-12T07:22:47.613Z,583.90
2022-08-12T07:27:45.902Z,593.50
2022-08-12T07:32:46.218Z,586.00
2022-08-12T07:37:44.532Z,577.80
2022-08-12T07:42:43.684Z,703.60
2022-08-12T07:47:42.995Z,612.80
2022-08-12T07:52:42.648Z,571.90
2022-08-12T07:57:40.613Z,598.40
2022-08-12T08:02:41.171Z,613.00
2022-08-12T08:07:40.249Z,641.10
2022-08-12T08:12:39.663Z,600.10
2022-08-12T08:17:39.718Z,663.30
2022-08-12T08:22:41.416Z,606.00
2022-08-12T08:27:38.125Z,624.30
2022-08-12T08:32:36.283Z,586.40
2022-08-12T08:37:37.199Z,655.50
2022-08-12T08:42:35.617Z,655.40
2022-08-12T08:47:33.747Z,611.90
2022-08-12T08:52:39.374Z,602.20
2022-08-12T08:57:43.115Z,613.50
2022-08-12T09:02:31.313Z,615.10
2022-08-12T09:07:51.150Z,590.00
2022-08-12T09:12:30.616Z,603.80
2022-08-12T09:17:42.984Z,665.20
2022-08-12T09:22:35.147Z,615.40
2022-08-12T09:27:57.798Z,615.40
2022-08-12T09:32:57.038Z,541.60
2022-08-12T09:37:25.567Z,551.10
2022-08-12T09:42:52.978Z,561.90
2022-08-12T09:47:28.925Z,519.10
2022-08-12T09:52:32.045Z,495.70
2022-08-12T09:58:46.457Z,509.80
2022-08-12T10:02:48.577Z,485.60
2022-08-12T10:07:24.707Z,520.50
2022-08-12T10:12:31.537Z,489.70
2022-08-12T10:17:21.163Z,526.30
2022-08-12T10:22:39.693Z,518.90
2022-08-12T10:27:18.776Z,558.00
2022-08-12T10:32:21.019Z,503.20
2022-08-12T10:37:22.842Z,441.40
2022-08-12T10:42:15.209Z,525.70
2022-08-12T10:47:26.228Z,409.50
2022-08-12T10:52:34.470Z,462.30
2022-08-12T10:57:18.029Z,624.60
2022-08-12T11:04:20.315Z,730.00
2022-08-12T11:08:33.821Z,408.30
2022-08-12T11:12:55.743Z,404.50
2022-08-12T11:17:43.374Z,649.50
2022-08-12T11:22:08.924Z,383.70
2022-08-12T11:27:11.714Z,412.40
2022-08-12T11:32:07.474Z,383.40
2022-08-12T11:37:06.684Z,318.30
2022-08-12T11:42:07.833Z,349.00
2022-08-12T11:47:09.540Z,309.40
2022-08-12T11:52:17.218Z,313.50
2022-08-12T11:58:08.121Z,324.10
2022-08-12T12:02:05.718Z,301.80
2022-08-12T12:07:07.567Z,324.20
2022-08-12T12:12:02.241Z,353.60
2022-08-12T12:16:59.393Z,319.80
2022-08-12T12:22:01.569Z,426.20
2022-08-12T12:27:01.576Z,488.60
2022-08-12T12:32:09.393Z,397.70
2022-08-12T12:36:57.292Z,508.10
2022-08-12T12:42:41.753Z,500.20
2022-08-12T12:46:55.692Z,506.20
2022-08-12T12:52:19.422Z,493.30
2022-08-12T12:56:54.272Z,480.70
2022-08-12T13:01:54.619Z,468.70
2022-08-12T13:06:53.700Z,437.10
2022-08-12T13:11:53.262Z,468.00
2022-08-12T13:16:51.176Z,472.80
2022-08-12T13:21:51.488Z,465.30
2022-08-12T13:26:49.789Z,505.40
2022-08-12T13:32:30.804Z,469.20
2022-08-12T13:36:47.528Z,471.30
2022-08-12T13:41:49.607Z,466.70
2022-08-12T13:46:58.388Z,471.60
2022-08-12T13:51:47.900Z,461.10
2022-08-12T13:56:49.906Z,544.90
2022-08-12T14:01:45.361Z,470.40
2022-08-12T14:06:44.842Z,417.20
2022-08-12T14:11:47.937Z,456.10
2022-08-12T14:16:48.470Z,507.70
2022-08-12T14:22:01.263Z,484.20
2022-08-12T14:26:40.373Z,499.80
2022-08-12T14:31:43.031Z,519.30
2022-08-12T14:36:40.768Z,500.40
2022-08-12T14:41:48.667Z,477.20
2022-08-12T14:46:38.293Z,480.60
2022-08-12T14:53:15.316Z,456.90
2022-08-12T14:57:19.464Z,453.30
2022-08-12T15:01:33.921Z,443.50
2022-08-12T15:06:44.206Z,359.10
2022-08-12T15:11:54.776Z,341.30
2022-08-12T15:16:33.585Z,391.30
2022-08-12T15:22:35.391Z,495.20
2022-08-12T15:26:36.658Z,488.10
2022-08-12T15:31:59.555Z,453.60
2022-08-12T15:36:55.188Z,452.20
2022-08-12T15:41:28.554Z,432.80
2022-08-12T15:46:28.763Z,449.20
2022-08-12T15:51:27.074Z,355.50
2022-08-12T15:56:29.387Z,336.30
2022-08-12T16:01:26.628Z,568.80
2022-08-12T16:06:36.404Z,336.00
2022-08-12T16:11:24.064Z,456.30
2022-08-12T16:16:24.887Z,349.70
2022-08-12T16:21:52.593Z,305.00
2022-08-12T16:26:27.487Z,329.10
2022-08-12T16:31:23.276Z,291.20
2022-08-12T16:36:20.311Z,265.70
2022-08-12T16:41:19.582Z,282.90
2022-08-12T16:46:31.185Z,295.50
2022-08-12T16:51:18.007Z,253.40
2022-08-12T16:56:18.239Z,291.60
2022-08-12T17:01:16.677Z,312.50
2022-08-12T17:06:19.594Z,313.10
2022-08-12T17:11:18.173Z,289.60
2022-08-12T17:16:18.033Z,323.40
2022-08-12T17:21:12.358Z,281.20
2022-08-12T17:26:12.546Z,274.70
2022-08-12T17:31:11.691Z,323.20
2022-08-12T17:36:10.952Z,298.00
2022-08-12T17:41:23.282Z,275.50
2022-08-12T17:46:13.191Z,337.50
2022-08-12T17:51:09.495Z,336.00
2022-08-12T17:56:07.767Z,321.90
2022-08-12T18:01:11.077Z,325.00
2022-08-12T18:06:13.958Z,342.10
2022-08-12T18:11:11.759Z,302.70
2022-08-12T18:16:06.368Z,291.70
2022-08-12T18:21:03.797Z,332.30
2022-08-12T18:26:14.791Z,311.80
2022-08-12T18:31:03.388Z,326.70
2022-08-12T18:36:02.430Z,338.30
2022-08-12T18:41:00.565Z,376.20
2022-08-12T18:45:59.787Z,363.40
2022-08-12T18:50:58.952Z,326.90
2022-08-12T18:55:59.549Z,372.80
2022-08-12T19:00:57.379Z,376.50
2022-08-12T19:05:56.523Z,397.10
2022-08-12T19:10:55.728Z,372.50
2022-08-12T19:15:57.547Z,457.60
2022-08-12T19:20:55.264Z,475.60
2022-08-12T19:26:01.517Z,453.00
2022-08-12T19:30:53.874Z,472.90
2022-08-12T19:36:07.503Z,604.20
2022-08-12T19:40:51.320Z,643.20
2022-08-12T19:45:50.589Z,621.70
2022-08-12T19:50:52.210Z,601.80
2022-08-12T19:55:51.675Z,547.80
2022-08-12T20:00:52.854Z,564.40
2022-08-12T20:06:05.566Z,593.10
2022-08-12T20:10:47.547Z,698.10
2022-08-12T20:15:46.661Z,690.10
2022-08-12T20:20:44.994Z,555.20
2022-08-12T20:25:53.506Z,614.60
2022-08-12T20:30:53.618Z,640.80
2022-08-12T20:36:13.662Z,591.60
2022-08-12T20:40:48.014Z,680.50
2022-08-12T20:45:50.820Z,691.90
2022-08-12T20:50:40.374Z,712.20
2022-08-12T20:55:42.334Z,678.80
2022-08-12T21:00:39.784Z,711.30
2022-08-12T21:06:11.900Z,677.40
2022-08-12T21:10:38.405Z,653.50
2022-08-12T21:15:54.870Z,695.10
2022-08-12T21:20:35.571Z,736.30
2022-08-12T21:25:45.203Z,705.40
2022-08-12T21:30:34.188Z,710.80
2022-08-12T21:35:35.863Z,739.90
2022-08-12T21:40:37.024Z,721.30
2022-08-12T21:45:46.868Z,768.80
2022-08-12T21:50:30.702Z,828.00
2022-08-12T21:55:30.992Z,816.50
2022-08-12T22:00:32.473Z,890.70
2022-08-12T22:05:30.269Z,745.00
2022-08-12T22:10:28.549Z,723.30
2022-08-12T22:15:37.835Z,724.70
2022-08-12T22:20:29.599Z,673.80
2022-08-12T22:25:26.745Z,686.00
2022-08-12T22:30:25.332Z,741.10
2022-08-12T22:35:29.218Z,704.20
2022-08-12T22:40:22.709Z,693.50
2022-08-12T22:45:23.304Z,659.40
2022-08-12T22:50:27.149Z,704.20
2022-08-12T22:55:58.636Z,664.30
2022-08-12T23:00:24.594Z,677.50
2022-08-12T23:05:20.877Z,667.40
2022-08-12T23:10:18.107Z,719.80
2022-08-12T23:15:17.445Z,662.10
2022-08-12T23:20:17.554Z,636.00
2022-08-12T23:25:19.157Z,675.20
2022-08-12T23:30:18.773Z,645.80
2022-08-12T23:35:18.907Z,669.50
2022-08-12T23:40:18.176Z,642.60
2022-08-12T23:45:20.424Z,650.90
2022-08-12T23:50:13.115Z,673.40
2022-08-12T23:55:23.660Z,663.30
